sensor_id;sensor_type;location;lat;lon;timestamp;pressure;altitude;pressure_sealevel;temperature;humidity
41862;BME280;27537;57.134;-2.136;2023-03-21T00:00:42;99814.06;;;8.80;100.00
41862;BME280;27537;57.134;-2.136;2023-03-21T00:03:09;99792.56;;;8.54;100.00
41862;BME280;27537;57.134;-2.136;2023-03-21T00:05:40;99815.59;;;8.84;100.00
41862;BME280;27537;57.134;-2.136;2023-03-21T00:08:08;99822.25;;;8.91;100.00
41862;BME280;27537;57.134;-2.136;2023-03-21T00:10:35;99796.88;;;8.74;100.00
41862;BME280;27537;57.134;-2.136;2023-03-21T00:13:14;99817.66;;;8.97;100.00
41862;BME280;27537;57.134;-2.136;2023-03-21T00:15:41;99765.22;;;8.63;100.00
41862;BME280;27537;57.134;-2.136;2023-03-21T00:18:41;99785.06;;;8.86;100.00
41862;BME280;27537;57.134;-2.136;2023-03-21T00:21:10;99781.31;;;8.73;100.00
41862;BME280;27537;57.134;-2.136;2023-03-21T00:23:58;99761.69;;;8.83;100.00
41862;BME280;27537;57.134;-2.136;2023-03-21T00:26:26;99758.31;;;8.81;100.00
41862;BME280;27537;57.134;-2.136;2023-03-21T00:28:53;99743.66;;;8.79;100.00
41862;BME280;27537;57.134;-2.136;2023-03-21T00:31:20;99757.19;;;8.87;100.00
41862;BME280;27537;57.134;-2.136;2023-03-21T00:33:47;99746.97;;;8.82;100.00
41862;BME280;27537;57.134;-2.136;2023-03-21T00:36:14;99762.25;;;9.09;100.00
41862;BME280;27537;57.134;-2.136;2023-03-21T00:38:41;99713.88;;;8.83;100.00
41862;BME280;27537;57.134;-2.136;2023-03-21T00:41:10;99756.03;;;9.11;100.00
41862;BME280;27537;57.134;-2.136;2023-03-21T00:43:51;99737.63;;;8.96;100.00
41862;BME280;27537;57.134;-2.136;2023-03-21T00:46:21;99746.03;;;9.02;100.00
41862;BME280;27537;57.134;-2.136;2023-03-21T00:48:50;99733.91;;;8.82;100.00
41862;BME280;27537;57.134;-2.136;2023-03-21T00:51:20;99706.63;;;8.70;100.00
41862;BME280;27537;57.134;-2.136;2023-03-21T00:53:55;99695.97;;;8.75;100.00
41862;BME280;27537;57.134;-2.136;2023-03-21T00:56:23;99701.31;;;8.91;100.00
41862;BME280;27537;57.134;-2.136;2023-03-21T00:58:50;99714.13;;;8.96;100.00
41862;BME280;27537;57.134;-2.136;2023-03-21T01:01:17;99713.78;;;9.03;100.00
41862;BME280;27537;57.134;-2.136;2023-03-21T01:03:44;99712.66;;;9.09;100.00
41862;BME280;27537;57.134;-2.136;2023-03-21T01:06:13;99643.72;;;8.77;100.00
41862;BME280;27537;57.134;-2.136;2023-03-21T01:08:46;99701.06;;;9.15;100.00
41862;BME280;27537;57.134;-2.136;2023-03-21T01:11:21;99701.19;;;9.11;100.00
41862;BME280;27537;57.134;-2.136;2023-03-21T01:13:48;99693.59;;;9.07;100.00
41862;BME280;27537;57.134;-2.136;2023-03-21T01:16:25;99657.97;;;8.87;100.00
41862;BME280;27537;57.134;-2.136;2023-03-21T01:18:51;99657.97;;;8.87;100.00
41862;BME280;27537;57.134;-2.136;2023-03-21T01:21:18;99659.94;;;9.01;100.00
41862;BME280;27537;57.134;-2.136;2023-03-21T01:23:45;99654.03;;;8.97;100.00
41862;BME280;27537;57.134;-2.136;2023-03-21T01:26:12;99633.66;;;8.86;100.00
41862;BME280;27537;57.134;-2.136;2023-03-21T01:28:40;99662.66;;;9.17;100.00
41862;BME280;27537;57.134;-2.136;2023-03-21T01:31:09;99607.16;;;8.77;100.00
41862;BME280;27537;57.134;-2.136;2023-03-21T01:33:37;99641.22;;;8.92;100.00
41862;BME280;27537;57.134;-2.136;2023-03-21T01:36:04;99659.91;;;9.20;100.00
41862;BME280;27537;57.134;-2.136;2023-03-21T01:38:40;99656.75;;;9.30;100.00
41862;BME280;27537;57.134;-2.136;2023-03-21T01:44:18;99619.63;;;9.06;100.00
41862;BME280;27537;57.134;-2.136;2023-03-21T01:46:47;99641.16;;;9.29;100.00
41862;BME280;27537;57.134;-2.136;2023-03-21T01:49:37;99607.94;;;9.13;100.00
41862;BME280;27537;57.134;-2.136;2023-03-21T01:52:09;99639.47;;;9.45;100.00
41862;BME280;27537;57.134;-2.136;2023-03-21T01:54:50;99579.69;;;9.04;100.00
41862;BME280;27537;57.134;-2.136;2023-03-21T01:57:22;99595.16;;;9.26;100.00
41862;BME280;27537;57.134;-2.136;2023-03-21T02:00:08;99596.53;;;9.34;100.00
41862;BME280;27537;57.134;-2.136;2023-03-21T02:02:41;99591.59;;;9.10;100.00
41862;BME280;27537;57.134;-2.136;2023-03-21T02:05:43;99614.28;;;9.44;100.00
41862;BME280;27537;57.134;-2.136;2023-03-21T02:08:16;99591.91;;;9.21;100.00
41862;BME280;27537;57.134;-2.136;2023-03-21T02:10:45;99536.69;;;8.77;100.00
41862;BME280;27537;57.134;-2.136;2023-03-21T02:13:16;99595.22;;;9.25;100.00
41862;BME280;27537;57.134;-2.136;2023-03-21T02:15:52;99598.91;;;9.21;100.00
41862;BME280;27537;57.134;-2.136;2023-03-21T02:24:01;99583.75;;;9.10;100.00
41862;BME280;27537;57.134;-2.136;2023-03-21T02:26:55;99512.59;;;8.71;100.00
41862;BME280;27537;57.134;-2.136;2023-03-21T02:37:34;99560.03;;;9.15;100.00
41862;BME280;27537;57.134;-2.136;2023-03-21T02:40:36;99559.13;;;9.33;100.00
41862;BME280;27537;57.134;-2.136;2023-03-21T02:43:14;99520.09;;;9.12;100.00
41862;BME280;27537;57.134;-2.136;2023-03-21T02:45:53;99553.72;;;9.36;100.00
41862;BME280;27537;57.134;-2.136;2023-03-21T02:49:08;99518.41;;;9.11;100.00
41862;BME280;27537;57.134;-2.136;2023-03-21T02:51:33;99492.47;;;9.08;100.00
41862;BME280;27537;57.134;-2.136;2023-03-21T02:54:04;99540.44;;;9.41;100.00
41862;BME280;27537;57.134;-2.136;2023-03-21T02:56:55;99498.59;;;9.07;100.00
41862;BME280;27537;57.134;-2.136;2023-03-21T02:59:24;99523.53;;;9.30;100.00
41862;BME280;27537;57.134;-2.136;2023-03-21T03:01:54;99523.88;;;9.24;100.00
41862;BME280;27537;57.134;-2.136;2023-03-21T03:04:24;99525.59;;;9.41;100.00
41862;BME280;27537;57.134;-2.136;2023-03-21T03:09:54;99513.63;;;9.37;100.00
41862;BME280;27537;57.134;-2.136;2023-03-21T03:21:07;99487.53;;;9.53;100.00
41862;BME280;27537;57.134;-2.136;2023-03-21T03:24:02;99427.31;;;9.23;100.00
41862;BME280;27537;57.134;-2.136;2023-03-21T03:26:35;99471.66;;;9.40;100.00
41862;BME280;27537;57.134;-2.136;2023-03-21T03:29:06;99421.41;;;9.19;100.00
41862;BME280;27537;57.134;-2.136;2023-03-21T03:31:44;99475.81;;;9.60;100.00
41862;BME280;27537;57.134;-2.136;2023-03-21T03:34:15;99471.03;;;9.53;100.00
41862;BME280;27537;57.134;-2.136;2023-03-21T03:36:49;99446.81;;;9.33;100.00
41862;BME280;27537;57.134;-2.136;2023-03-21T03:39:28;99436.66;;;9.27;100.00
41862;BME280;27537;57.134;-2.136;2023-03-21T03:42:02;99468.97;;;9.58;100.00
41862;BME280;27537;57.134;-2.136;2023-03-21T03:44:51;99429.72;;;9.26;100.00
41862;BME280;27537;57.134;-2.136;2023-03-21T03:47:42;99393.00;;;9.13;100.00
41862;BME280;27537;57.134;-2.136;2023-03-21T03:50:38;99450.78;;;9.56;100.00
41862;BME280;27537;57.134;-2.136;2023-03-21T03:53:11;99449.44;;;9.65;100.00
41862;BME280;27537;57.134;-2.136;2023-03-21T03:55:44;99456.00;;;9.40;100.00
41862;BME280;27537;57.134;-2.136;2023-03-21T03:58:11;99409.13;;;9.37;100.00
41862;BME280;27537;57.134;-2.136;2023-03-21T04:00:50;99441.94;;;9.59;100.00
41862;BME280;27537;57.134;-2.136;2023-03-21T04:03:17;99364.94;;;9.17;100.00
41862;BME280;27537;57.134;-2.136;2023-03-21T04:05:44;99433.50;;;9.54;100.00
41862;BME280;27537;57.134;-2.136;2023-03-21T04:08:14;99412.06;;;9.47;100.00
41862;BME280;27537;57.134;-2.136;2023-03-21T04:10:42;99387.63;;;9.32;100.00
41862;BME280;27537;57.134;-2.136;2023-03-21T04:13:09;99405.44;;;9.57;100.00
41862;BME280;27537;57.134;-2.136;2023-03-21T04:15:36;99354.19;;;9.23;100.00
41862;BME280;27537;57.134;-2.136;2023-03-21T04:18:03;99412.75;;;9.66;100.00
41862;BME280;27537;57.134;-2.136;2023-03-21T04:20:30;99378.69;;;9.52;100.00
41862;BME280;27537;57.134;-2.136;2023-03-21T04:23:04;99374.41;;;9.51;100.00
41862;BME280;27537;57.134;-2.136;2023-03-21T04:25:34;99386.13;;;9.76;100.00
41862;BME280;27537;57.134;-2.136;2023-03-21T04:28:05;99381.31;;;9.68;100.00
41862;BME280;27537;57.134;-2.136;2023-03-21T04:30:32;99382.06;;;9.54;100.00
41862;BME280;27537;57.134;-2.136;2023-03-21T04:32:59;99383.53;;;9.60;100.00
41862;BME280;27537;57.134;-2.136;2023-03-21T04:35:26;99365.47;;;9.55;100.00
41862;BME280;27537;57.134;-2.136;2023-03-21T04:37:54;99389.00;;;9.71;100.00
41862;BME280;27537;57.134;-2.136;2023-03-21T04:40:21;99385.47;;;9.72;100.00
41862;BME280;27537;57.134;-2.136;2023-03-21T04:42:50;99392.28;;;9.75;100.00
41862;BME280;27537;57.134;-2.136;2023-03-21T04:45:17;99340.78;;;9.61;100.00
41862;BME280;27537;57.134;-2.136;2023-03-21T04:47:43;99376.75;;;9.72;100.00
41862;BME280;27537;57.134;-2.136;2023-03-21T04:50:11;99324.94;;;9.48;100.00
41862;BME280;27537;57.134;-2.136;2023-03-21T04:52:39;99313.59;;;9.33;100.00
41862;BME280;27537;57.134;-2.136;2023-03-21T04:55:06;99363.38;;;9.62;100.00
41862;BME280;27537;57.134;-2.136;2023-03-21T04:57:36;99323.91;;;9.50;100.00
41862;BME280;27537;57.134;-2.136;2023-03-21T05:00:05;99315.47;;;9.45;100.00
41862;BME280;27537;57.134;-2.136;2023-03-21T05:02:37;99349.34;;;9.79;100.00
41862;BME280;27537;57.134;-2.136;2023-03-21T05:05:04;99307.47;;;9.48;100.00
41862;BME280;27537;57.134;-2.136;2023-03-21T05:07:32;99290.38;;;9.43;100.00
41862;BME280;27537;57.134;-2.136;2023-03-21T05:09:59;99326.38;;;9.54;100.00
41862;BME280;27537;57.134;-2.136;2023-03-21T05:12:28;99315.00;;;9.55;100.00
41862;BME280;27537;57.134;-2.136;2023-03-21T05:14:54;99298.22;;;9.59;100.00
41862;BME280;27537;57.134;-2.136;2023-03-21T05:17:21;99322.19;;;9.81;100.00
41862;BME280;27537;57.134;-2.136;2023-03-21T05:19:54;99319.91;;;9.75;100.00
41862;BME280;27537;57.134;-2.136;2023-03-21T05:22:22;99311.63;;;9.68;100.00
41862;BME280;27537;57.134;-2.136;2023-03-21T05:24:52;99298.03;;;9.62;100.00
41862;BME280;27537;57.134;-2.136;2023-03-21T05:27:21;99303.41;;;9.75;100.00
41862;BME280;27537;57.134;-2.136;2023-03-21T05:30:10;99276.22;;;9.47;100.00
41862;BME280;27537;57.134;-2.136;2023-03-21T05:32:37;99283.44;;;9.58;100.00
41862;BME280;27537;57.134;-2.136;2023-03-21T05:35:04;99275.31;;;9.48;100.00
41862;BME280;27537;57.134;-2.136;2023-03-21T05:37:31;99306.59;;;9.80;100.00
41862;BME280;27537;57.134;-2.136;2023-03-21T05:39:58;99239.63;;;9.47;100.00
41862;BME280;27537;57.134;-2.136;2023-03-21T05:42:25;99251.34;;;9.56;100.00
41862;BME280;27537;57.134;-2.136;2023-03-21T05:44:52;99251.22;;;9.73;100.00
41862;BME280;27537;57.134;-2.136;2023-03-21T05:47:19;99265.13;;;9.74;100.00
41862;BME280;27537;57.134;-2.136;2023-03-21T05:49:45;99250.81;;;9.65;100.00
41862;BME280;27537;57.134;-2.136;2023-03-21T05:52:12;99248.09;;;9.66;100.00
41862;BME280;27537;57.134;-2.136;2023-03-21T05:54:39;99202.59;;;9.40;100.00
41862;BME280;27537;57.134;-2.136;2023-03-21T05:57:06;99275.19;;;9.96;100.00
41862;BME280;27537;57.134;-2.136;2023-03-21T05:59:33;99223.88;;;9.48;100.00
41862;BME280;27537;57.134;-2.136;2023-03-21T06:02:00;99214.63;;;9.43;100.00
41862;BME280;27537;57.134;-2.136;2023-03-21T06:04:27;99234.03;;;9.69;100.00
41862;BME280;27537;57.134;-2.136;2023-03-21T06:06:56;99226.56;;;9.77;100.00
41862;BME280;27537;57.134;-2.136;2023-03-21T06:09:23;99246.69;;;9.91;100.00
41862;BME280;27537;57.134;-2.136;2023-03-21T06:11:53;99239.88;;;9.58;100.00
41862;BME280;27537;57.134;-2.136;2023-03-21T06:14:22;99214.22;;;9.65;100.00
41862;BME280;27537;57.134;-2.136;2023-03-21T06:16:49;99183.50;;;9.54;100.00
41862;BME280;27537;57.134;-2.136;2023-03-21T06:19:16;99171.13;;;9.42;100.00
41862;BME280;27537;57.134;-2.136;2023-03-21T06:21:43;99216.94;;;9.63;100.00
41862;BME280;27537;57.134;-2.136;2023-03-21T06:24:10;99191.69;;;9.48;100.00
41862;BME280;27537;57.134;-2.136;2023-03-21T06:26:36;99229.81;;;9.66;100.00
41862;BME280;27537;57.134;-2.136;2023-03-21T06:29:03;99264.25;;;9.89;100.00
41862;BME280;27537;57.134;-2.136;2023-03-21T06:31:30;99234.88;;;9.69;100.00
41862;BME280;27537;57.134;-2.136;2023-03-21T06:33:57;99260.72;;;9.90;100.00
41862;BME280;27537;57.134;-2.136;2023-03-21T06:36:24;99246.41;;;9.81;100.00
41862;BME280;27537;57.134;-2.136;2023-03-21T06:38:51;99274.47;;;10.08;100.00
41862;BME280;27537;57.134;-2.136;2023-03-21T06:41:17;99231.44;;;9.69;100.00
41862;BME280;27537;57.134;-2.136;2023-03-21T06:43:44;99230.72;;;9.81;100.00
41862;BME280;27537;57.134;-2.136;2023-03-21T06:46:11;99185.97;;;9.72;100.00
41862;BME280;27537;57.134;-2.136;2023-03-21T06:48:38;99246.53;;;10.08;100.00
41862;BME280;27537;57.134;-2.136;2023-03-21T06:51:11;99265.97;;;10.04;100.00
41862;BME280;27537;57.134;-2.136;2023-03-21T06:53:38;99208.75;;;9.84;100.00
41862;BME280;27537;57.134;-2.136;2023-03-21T06:56:05;99252.59;;;10.09;100.00
41862;BME280;27537;57.134;-2.136;2023-03-21T06:58:32;99223.38;;;10.02;100.00
41862;BME280;27537;57.134;-2.136;2023-03-21T07:00:59;99216.09;;;10.07;100.00
41862;BME280;27537;57.134;-2.136;2023-03-21T07:03:27;99222.00;;;10.11;100.00
41862;BME280;27537;57.134;-2.136;2023-03-21T07:05:54;99216.66;;;10.13;100.00
41862;BME280;27537;57.134;-2.136;2023-03-21T07:08:21;99233.13;;;10.15;100.00
41862;BME280;27537;57.134;-2.136;2023-03-21T07:10:48;99243.00;;;10.24;100.00
41862;BME280;27537;57.134;-2.136;2023-03-21T07:13:15;99249.41;;;10.34;100.00
41862;BME280;27537;57.134;-2.136;2023-03-21T07:15:42;99220.28;;;10.10;100.00
41862;BME280;27537;57.134;-2.136;2023-03-21T07:18:08;99208.34;;;10.20;100.00
41862;BME280;27537;57.134;-2.136;2023-03-21T07:20:36;99221.53;;;10.19;100.00
41862;BME280;27537;57.134;-2.136;2023-03-21T07:23:04;99213.41;;;10.23;100.00
41862;BME280;27537;57.134;-2.136;2023-03-21T07:25:31;99224.56;;;10.41;100.00
41862;BME280;27537;57.134;-2.136;2023-03-21T07:27:58;99178.06;;;10.16;100.00
41862;BME280;27537;57.134;-2.136;2023-03-21T07:30:24;99218.69;;;10.38;100.00
41862;BME280;27537;57.134;-2.136;2023-03-21T07:32:51;99226.31;;;10.41;100.00
41862;BME280;27537;57.134;-2.136;2023-03-21T07:35:19;99261.19;;;10.70;100.00
41862;BME280;27537;57.134;-2.136;2023-03-21T07:37:45;99241.38;;;10.52;100.00
41862;BME280;27537;57.134;-2.136;2023-03-21T07:40:12;99176.59;;;10.26;100.00
41862;BME280;27537;57.134;-2.136;2023-03-21T07:42:39;99260.25;;;10.71;100.00
41862;BME280;27537;57.134;-2.136;2023-03-21T07:45:07;99239.44;;;10.55;100.00
41862;BME280;27537;57.134;-2.136;2023-03-21T07:47:35;99244.91;;;10.65;100.00
41862;BME280;27537;57.134;-2.136;2023-03-21T07:50:02;99217.53;;;10.42;100.00
41862;BME280;27537;57.134;-2.136;2023-03-21T07:52:30;99255.47;;;10.78;100.00
41862;BME280;27537;57.134;-2.136;2023-03-21T07:54:57;99217.94;;;10.50;100.00
41862;BME280;27537;57.134;-2.136;2023-03-21T07:57:24;99216.97;;;10.51;100.00
41862;BME280;27537;57.134;-2.136;2023-03-21T07:59:51;99225.03;;;10.62;100.00
41862;BME280;27537;57.134;-2.136;2023-03-21T08:02:18;99229.03;;;10.54;100.00
41862;BME280;27537;57.134;-2.136;2023-03-21T08:04:45;99211.47;;;10.41;100.00
41862;BME280;27537;57.134;-2.136;2023-03-21T08:07:12;99252.94;;;10.76;100.00
41862;BME280;27537;57.134;-2.136;2023-03-21T08:09:39;99178.78;;;10.34;100.00
41862;BME280;27537;57.134;-2.136;2023-03-21T08:12:06;99221.75;;;10.59;100.00
41862;BME280;27537;57.134;-2.136;2023-03-21T08:14:36;99224.13;;;10.76;100.00
41862;BME280;27537;57.134;-2.136;2023-03-21T08:17:03;99244.97;;;11.07;100.00
41862;BME280;27537;57.134;-2.136;2023-03-21T08:19:31;99184.28;;;11.40;100.00
41862;BME280;27537;57.134;-2.136;2023-03-21T08:21:58;99198.19;;;11.68;100.00
41862;BME280;27537;57.134;-2.136;2023-03-21T08:24:26;99203.31;;;12.22;100.00
41862;BME280;27537;57.134;-2.136;2023-03-21T08:26:53;99194.63;;;12.59;100.00
41862;BME280;27537;57.134;-2.136;2023-03-21T08:29:20;99210.66;;;12.80;100.00
41862;BME280;27537;57.134;-2.136;2023-03-21T08:31:47;99200.56;;;12.86;100.00
41862;BME280;27537;57.134;-2.136;2023-03-21T08:34:14;99187.69;;;13.07;100.00
41862;BME280;27537;57.134;-2.136;2023-03-21T08:36:40;99174.41;;;12.85;100.00
41862;BME280;27537;57.134;-2.136;2023-03-21T08:39:07;99178.97;;;13.31;100.00
41862;BME280;27537;57.134;-2.136;2023-03-21T08:41:35;99213.72;;;13.83;100.00
41862;BME280;27537;57.134;-2.136;2023-03-21T08:44:04;99203.28;;;13.81;100.00
41862;BME280;27537;57.134;-2.136;2023-03-21T08:46:32;99164.56;;;13.24;100.00
41862;BME280;27537;57.134;-2.136;2023-03-21T08:48:59;99187.28;;;12.77;100.00
41862;BME280;27537;57.134;-2.136;2023-03-21T08:51:25;99196.66;;;12.92;100.00
41862;BME280;27537;57.134;-2.136;2023-03-21T08:53:52;99180.53;;;12.72;100.00
41862;BME280;27537;57.134;-2.136;2023-03-21T08:56:19;99192.28;;;12.80;100.00
41862;BME280;27537;57.134;-2.136;2023-03-21T08:58:46;99166.22;;;12.89;100.00
41862;BME280;27537;57.134;-2.136;2023-03-21T09:01:12;99147.97;;;13.23;100.00
41862;BME280;27537;57.134;-2.136;2023-03-21T09:03:42;99190.75;;;13.85;100.00
41862;BME280;27537;57.134;-2.136;2023-03-21T09:06:10;99204.91;;;14.40;100.00
41862;BME280;27537;57.134;-2.136;2023-03-21T09:08:40;99205.44;;;14.68;100.00
41862;BME280;27537;57.134;-2.136;2023-03-21T09:11:08;99167.56;;;14.35;100.00
41862;BME280;27537;57.134;-2.136;2023-03-21T09:13:35;99152.75;;;14.23;100.00
41862;BME280;27537;57.134;-2.136;2023-03-21T09:16:02;99187.47;;;14.73;100.00
41862;BME280;27537;57.134;-2.136;2023-03-21T09:18:30;99160.53;;;14.58;100.00
41862;BME280;27537;57.134;-2.136;2023-03-21T09:21:15;99184.22;;;14.47;100.00
41862;BME280;27537;57.134;-2.136;2023-03-21T09:23:44;99189.34;;;14.26;100.00
41862;BME280;27537;57.134;-2.136;2023-03-21T09:26:12;99143.53;;;14.06;100.00
41862;BME280;27537;57.134;-2.136;2023-03-21T09:28:39;99170.47;;;14.43;100.00
41862;BME280;27537;57.134;-2.136;2023-03-21T09:31:06;99160.75;;;14.21;100.00
41862;BME280;27537;57.134;-2.136;2023-03-21T09:33:38;99182.28;;;14.49;100.00
41862;BME280;27537;57.134;-2.136;2023-03-21T09:36:09;99161.38;;;14.36;100.00
41862;BME280;27537;57.134;-2.136;2023-03-21T09:38:40;99129.97;;;13.88;100.00
41862;BME280;27537;57.134;-2.136;2023-03-21T09:46:54;99160.22;;;13.60;100.00
41862;BME280;27537;57.134;-2.136;2023-03-21T09:49:26;99157.59;;;13.82;100.00
41862;BME280;27537;57.134;-2.136;2023-03-21T09:52:00;99115.03;;;13.77;100.00
41862;BME280;27537;57.134;-2.136;2023-03-21T09:54:31;99149.97;;;13.91;100.00
41862;BME280;27537;57.134;-2.136;2023-03-21T09:57:26;99127.63;;;14.19;100.00
41862;BME280;27537;57.134;-2.136;2023-03-21T09:59:51;99161.09;;;13.83;100.00
41862;BME280;27537;57.134;-2.136;2023-03-21T10:02:42;99137.66;;;13.91;100.00
41862;BME280;27537;57.134;-2.136;2023-03-21T10:05:24;99155.50;;;14.10;100.00
41862;BME280;27537;57.134;-2.136;2023-03-21T10:08:05;99152.16;;;14.31;100.00
41862;BME280;27537;57.134;-2.136;2023-03-21T10:10:42;99121.63;;;13.94;100.00
41862;BME280;27537;57.134;-2.136;2023-03-21T10:13:32;99139.22;;;14.16;100.00
41862;BME280;27537;57.134;-2.136;2023-03-21T10:16:09;99075.63;;;13.42;100.00
41862;BME280;27537;57.134;-2.136;2023-03-21T10:18:40;99127.19;;;13.56;100.00
41862;BME280;27537;57.134;-2.136;2023-03-21T10:21:12;99140.50;;;13.88;100.00
41862;BME280;27537;57.134;-2.136;2023-03-21T10:24:01;99135.50;;;13.96;100.00
41862;BME280;27537;57.134;-2.136;2023-03-21T10:26:29;99082.25;;;13.47;100.00
41862;BME280;27537;57.134;-2.136;2023-03-21T10:29:01;99133.69;;;13.85;100.00
41862;BME280;27537;57.134;-2.136;2023-03-21T10:31:29;99139.22;;;14.05;100.00
41862;BME280;27537;57.134;-2.136;2023-03-21T10:34:00;99089.81;;;13.75;100.00
41862;BME280;27537;57.134;-2.136;2023-03-21T10:36:30;99116.03;;;13.99;100.00
41862;BME280;27537;57.134;-2.136;2023-03-21T10:39:02;99118.47;;;13.66;100.00
41862;BME280;27537;57.134;-2.136;2023-03-21T10:41:31;99118.13;;;13.71;100.00
41862;BME280;27537;57.134;-2.136;2023-03-21T10:44:08;99124.38;;;13.81;100.00
41862;BME280;27537;57.134;-2.136;2023-03-21T10:46:37;99070.31;;;13.77;100.00
41862;BME280;27537;57.134;-2.136;2023-03-21T10:49:06;99075.81;;;13.85;100.00
41862;BME280;27537;57.134;-2.136;2023-03-21T10:51:35;99086.69;;;14.03;100.00
41862;BME280;27537;57.134;-2.136;2023-03-21T10:54:10;99100.31;;;14.20;100.00
41862;BME280;27537;57.134;-2.136;2023-03-21T10:56:49;99107.88;;;14.13;100.00
41862;BME280;27537;57.134;-2.136;2023-03-21T10:59:20;99080.75;;;13.90;100.00
41862;BME280;27537;57.134;-2.136;2023-03-21T11:01:50;99066.94;;;13.41;100.00
41862;BME280;27537;57.134;-2.136;2023-03-21T11:04:25;99124.75;;;14.33;100.00
41862;BME280;27537;57.134;-2.136;2023-03-21T11:06:55;99052.03;;;13.87;100.00
41862;BME280;27537;57.134;-2.136;2023-03-21T11:09:25;99081.91;;;13.86;100.00
41862;BME280;27537;57.134;-2.136;2023-03-21T11:12:07;99106.81;;;14.27;100.00
41862;BME280;27537;57.134;-2.136;2023-03-21T11:14:39;99067.69;;;14.11;100.00
41862;BME280;27537;57.134;-2.136;2023-03-21T11:17:21;99044.00;;;14.11;100.00
41862;BME280;27537;57.134;-2.136;2023-03-21T11:19:56;99093.41;;;14.19;100.00
41862;BME280;27537;57.134;-2.136;2023-03-21T11:22:28;99083.91;;;14.39;100.00
41862;BME280;27537;57.134;-2.136;2023-03-21T11:24:58;99074.97;;;14.08;100.00
41862;BME280;27537;57.134;-2.136;2023-03-21T11:27:27;99059.69;;;14.01;100.00
41862;BME280;27537;57.134;-2.136;2023-03-21T11:29:57;99089.56;;;14.34;100.00
41862;BME280;27537;57.134;-2.136;2023-03-21T11:32:37;99088.50;;;14.26;100.00
41862;BME280;27537;57.134;-2.136;2023-03-21T11:35:16;99063.25;;;14.12;100.00
41862;BME280;27537;57.134;-2.136;2023-03-21T11:37:50;99048.22;;;14.02;100.00
41862;BME280;27537;57.134;-2.136;2023-03-21T11:42:51;99028.66;;;14.71;100.00
41862;BME280;27537;57.134;-2.136;2023-03-21T11:47:51;99045.06;;;15.07;100.00
41862;BME280;27537;57.134;-2.136;2023-03-21T11:50:40;99053.72;;;15.19;100.00
41862;BME280;27537;57.134;-2.136;2023-03-21T12:06:57;99054.75;;;15.49;100.00
41862;BME280;27537;57.134;-2.136;2023-03-21T12:31:41;99058.94;;;15.30;100.00
41862;BME280;27537;57.134;-2.136;2023-03-21T12:34:14;99060.47;;;15.33;100.00
41862;BME280;27537;57.134;-2.136;2023-03-21T12:37:05;99047.16;;;15.34;100.00
41862;BME280;27537;57.134;-2.136;2023-03-21T12:39:38;98986.41;;;14.94;100.00
41862;BME280;27537;57.134;-2.136;2023-03-21T12:44:40;99027.50;;;15.17;100.00
41862;BME280;27537;57.134;-2.136;2023-03-21T12:47:14;99004.41;;;15.31;100.00
41862;BME280;27537;57.134;-2.136;2023-03-21T12:49:50;99027.44;;;15.29;100.00
41862;BME280;27537;57.134;-2.136;2023-03-21T12:52:24;99036.94;;;15.72;100.00
41862;BME280;27537;57.134;-2.136;2023-03-21T12:54:57;98982.28;;;15.22;100.00
41862;BME280;27537;57.134;-2.136;2023-03-21T13:05:55;99010.78;;;15.90;100.00
41862;BME280;27537;57.134;-2.136;2023-03-21T13:11:15;98993.84;;;15.31;100.00
41862;BME280;27537;57.134;-2.136;2023-03-21T13:13:55;99012.09;;;15.44;100.00
41862;BME280;27537;57.134;-2.136;2023-03-21T13:26:59;98986.88;;;16.32;100.00
41862;BME280;27537;57.134;-2.136;2023-03-21T13:29:31;98960.94;;;15.56;100.00
41862;BME280;27537;57.134;-2.136;2023-03-21T13:40:46;98984.09;;;15.00;100.00
41862;BME280;27537;57.134;-2.136;2023-03-21T13:54:02;98955.28;;;13.91;100.00
41862;BME280;27537;57.134;-2.136;2023-03-21T13:56:47;98925.94;;;14.07;100.00
41862;BME280;27537;57.134;-2.136;2023-03-21T14:02:21;98962.38;;;14.66;100.00
41862;BME280;27537;57.134;-2.136;2023-03-21T14:05:19;98964.09;;;14.44;100.00
41862;BME280;27537;57.134;-2.136;2023-03-21T14:07:48;98960.50;;;14.02;100.00
41862;BME280;27537;57.134;-2.136;2023-03-21T14:10:28;98944.78;;;14.23;100.00
41862;BME280;27537;57.134;-2.136;2023-03-21T14:12:57;98918.72;;;14.20;100.00
41862;BME280;27537;57.134;-2.136;2023-03-21T14:15:47;98930.63;;;14.68;100.00
41862;BME280;27537;57.134;-2.136;2023-03-21T14:18:27;98945.75;;;14.54;100.00
41862;BME280;27537;57.134;-2.136;2023-03-21T14:21:21;98926.09;;;14.70;100.00
41862;BME280;27537;57.134;-2.136;2023-03-21T14:24:02;98962.38;;;14.87;100.00
41862;BME280;27537;57.134;-2.136;2023-03-21T14:26:43;98955.00;;;14.49;100.00
41862;BME280;27537;57.134;-2.136;2023-03-21T14:29:32;98942.59;;;14.72;100.00
41862;BME280;27537;57.134;-2.136;2023-03-21T14:32:01;98916.75;;;14.33;100.00
41862;BME280;27537;57.134;-2.136;2023-03-21T14:34:30;98920.09;;;14.35;100.00
41862;BME280;27537;57.134;-2.136;2023-03-21T14:36:58;98918.47;;;14.23;100.00
41862;BME280;27537;57.134;-2.136;2023-03-21T14:39:28;98948.00;;;14.27;100.00
41862;BME280;27537;57.134;-2.136;2023-03-21T14:42:02;98901.25;;;13.86;100.00
41862;BME280;27537;57.134;-2.136;2023-03-21T14:44:37;98950.84;;;13.91;100.00
41862;BME280;27537;57.134;-2.136;2023-03-21T14:47:24;98937.81;;;14.01;100.00
41862;BME280;27537;57.134;-2.136;2023-03-21T14:49:51;98921.16;;;14.12;100.00
41862;BME280;27537;57.134;-2.136;2023-03-21T14:52:29;98942.28;;;14.54;100.00
41862;BME280;27537;57.134;-2.136;2023-03-21T14:54:57;98903.53;;;13.80;100.00
41862;BME280;27537;57.134;-2.136;2023-03-21T14:57:28;98952.59;;;14.13;100.00
41862;BME280;27537;57.134;-2.136;2023-03-21T14:59:59;98947.59;;;14.10;100.00
41862;BME280;27537;57.134;-2.136;2023-03-21T15:02:32;98886.47;;;13.18;100.00
41862;BME280;27537;57.134;-2.136;2023-03-21T15:05:34;98945.34;;;13.94;100.00
41862;BME280;27537;57.134;-2.136;2023-03-21T15:08:12;98943.91;;;14.01;100.00
41862;BME280;27537;57.134;-2.136;2023-03-21T15:10:41;98899.69;;;13.84;100.00